createdAt,value
2022-08-13T00:02:54.607Z,64.50
2022-08-13T00:07:58.539Z,64.49
2022-08-13T00:13:02.562Z,64.78
2022-08-13T00:18:11.192Z,64.28
2022-08-13T00:23:23.752Z,64.45
2022-08-13T00:28:47.461Z,64.59
2022-08-13T00:33:50.890Z,64.29
2022-08-13T00:38:54.197Z,64.18
2022-08-13T00:44:01.271Z,64.10
2022-08-13T00:49:05.960Z,64.19
2022-08-13T00:54:15.730Z,64.03
2022-08-13T00:59:23.595Z,63.89
2022-08-13T01:04:28.436Z,64.08
2022-08-13T01:10:16.208Z,64.04
2022-08-13T01:14:58.166Z,63.96
2022-08-13T01:20:07.080Z,64.21
2022-08-13T01:25:10.759Z,63.91
2022-08-13T01:30:22.553Z,63.85
2022-08-13T01:35:26.486Z,64.16
2022-08-13T01:40:30.446Z,63.85
2022-08-13T01:45:37.382Z,64.01
2022-08-13T01:50:44.753Z,63.70
2022-08-13T01:56:06.182Z,63.97
2022-08-13T02:01:15.559Z,63.98
2022-08-13T02:06:31.402Z,64.03
2022-08-13T02:11:45.832Z,63.42
2022-08-13T02:16:53.472Z,63.71
2022-08-13T02:22:02.131Z,63.85
2022-08-13T02:27:06.689Z,63.53
2022-08-13T02:32:15.880Z,63.73
2022-08-13T02:37:45.061Z,63.44
2022-08-13T02:42:56.136Z,63.82
2022-08-13T02:48:02.978Z,63.94
2022-08-13T02:53:06.708Z,64.13
2022-08-13T02:58:38.560Z,63.95
2022-08-13T03:03:47.141Z,63.75
2022-08-13T03:08:51.844Z,64.16
2022-08-13T03:14:09.474Z,63.89
2022-08-13T03:19:12.987Z,64.02
2022-08-13T03:24:29.848Z,63.79
2022-08-13T03:30:03.340Z,63.80
2022-08-13T03:34:58.690Z,64.26
2022-08-13T03:40:04.084Z,63.82
2022-08-13T03:45:10.249Z,64.13
2022-08-13T03:50:16.183Z,64.02
2022-08-13T03:55:19.667Z,63.80
2022-08-13T04:00:23.505Z,63.37
2022-08-13T04:05:41.201Z,63.70
2022-08-13T04:10:56.176Z,63.35
2022-08-13T04:16:08.609Z,63.35
2022-08-13T04:21:17.510Z,63.15
2022-08-13T04:26:31.207Z,62.84
2022-08-13T04:31:46.886Z,62.81
2022-08-13T04:36:57.496Z,62.87
2022-08-13T04:42:01.163Z,62.99
2022-08-13T04:47:05.675Z,63.09
2022-08-13T04:52:09.391Z,62.67
2022-08-13T04:57:13.242Z,62.61
2022-08-13T05:02:17.474Z,62.56
2022-08-13T05:07:21.020Z,62.32
2022-08-13T05:12:29.405Z,62.12
2022-08-13T05:17:46.467Z,61.78
2022-08-13T05:26:06.194Z,61.51
2022-08-13T05:28:14.014Z,61.51
2022-08-13T05:33:23.242Z,60.81
2022-08-13T05:38:40.764Z,60.83
2022-08-13T05:43:44.855Z,60.92
2022-08-13T05:48:55.276Z,60.82
2022-08-13T05:56:06.633Z,60.54
2022-08-13T05:59:23.535Z,57.37
2022-08-13T06:04:37.555Z,53.59
2022-08-13T06:09:44.231Z,53.88
2022-08-13T06:14:53.981Z,51.87
2022-08-13T06:19:57.948Z,51.15
2022-08-13T06:25:03.394Z,50.44
2022-08-13T06:30:07.414Z,47.78
2022-08-13T06:35:13.316Z,47.37
2022-08-13T06:40:34.848Z,44.69
2022-08-13T06:45:42.335Z,42.29
2022-08-13T06:50:46.930Z,41.58
2022-08-13T06:56:20.939Z,42.52
2022-08-13T07:01:21.292Z,44.85
2022-08-13T07:06:28.870Z,46.86
2022-08-13T07:11:38.387Z,49.13
2022-08-13T07:16:46.567Z,50.17
2022-08-13T07:21:50.128Z,50.55
2022-08-13T07:26:56.242Z,51.33
2022-08-13T07:32:04.688Z,51.58
2022-08-13T07:37:08.884Z,51.62
2022-08-13T07:42:13.201Z,50.66
2022-08-13T07:47:23.552Z,50.20
2022-08-13T07:52:30.727Z,50.09
2022-08-13T07:57:38.445Z,49.58
2022-08-13T08:02:58.271Z,49.68
2022-08-13T08:08:05.678Z,49.27
2022-08-13T08:13:14.306Z,49.49
2022-08-13T08:18:37.192Z,49.20
2022-08-13T08:23:48.556Z,49.23
2022-08-13T08:28:58.644Z,49.26
2022-08-13T08:34:02.540Z,49.46
2022-08-13T08:39:14.866Z,49.05
2022-08-13T08:44:19.365Z,49.31
2022-08-13T08:49:26.394Z,49.65
2022-08-13T08:54:43.029Z,50.00
2022-08-13T08:59:51.793Z,50.12
2022-08-13T09:04:59.795Z,50.22
2022-08-13T09:10:05.408Z,50.17
2022-08-13T09:15:16.075Z,50.43
2022-08-13T09:20:24.364Z,50.84
2022-08-13T09:25:33.568Z,51.32
2022-08-13T09:30:49.220Z,51.31
2022-08-13T09:35:54.444Z,51.73
2022-08-13T09:41:38.397Z,51.75
2022-08-13T09:46:41.947Z,51.80
2022-08-13T09:51:56.775Z,51.60
2022-08-13T09:57:09.335Z,51.35
2022-08-13T10:02:16.475Z,51.31
2022-08-13T10:07:21.356Z,51.10
2022-08-13T10:12:25.005Z,51.47
2022-08-13T10:18:00.899Z,51.65
2022-08-13T10:23:08.421Z,51.69
2022-08-13T10:28:29.839Z,51.47
2022-08-13T10:33:37.353Z,51.73
2022-08-13T10:38:53.309Z,52.01
2022-08-13T10:43:59.501Z,51.88
2022-08-13T10:49:04.721Z,51.98
2022-08-13T10:54:08.091Z,52.65
2022-08-13T10:59:25.188Z,52.39
2022-08-13T11:04:32.176Z,53.18
2022-08-13T11:09:36.945Z,53.17
2022-08-13T11:14:42.038Z,53.50
2022-08-13T11:19:49.719Z,53.76
2022-08-13T11:25:18.265Z,53.82
2022-08-13T11:30:34.923Z,53.29
2022-08-13T11:35:40.911Z,53.70
2022-08-13T11:40:57.531Z,53.28
2022-08-13T11:46:01.564Z,53.43
2022-08-13T11:51:05.938Z,53.97
2022-08-13T11:56:10.544Z,53.87
2022-08-13T12:01:17.336Z,53.48
2022-08-13T12:06:22.697Z,53.94
2022-08-13T12:12:08.288Z,53.76
2022-08-13T12:16:56.454Z,54.14
2022-08-13T12:22:00.291Z,54.28
2022-08-13T12:27:05.127Z,54.57
2022-08-13T12:32:12.114Z,54.80
2022-08-13T12:37:22.643Z,55.32
2022-08-13T12:42:28.802Z,55.29
2022-08-13T12:47:32.521Z,54.92
2022-08-13T12:52:39.541Z,55.35
2022-08-13T12:58:02.469Z,54.98
2022-08-13T13:03:12.970Z,55.44
2022-08-13T13:08:29.681Z,55.93
2022-08-13T13:13:55.081Z,56.17
2022-08-13T13:19:03.171Z,56.73
2022-08-13T13:24:16.871Z,57.19
2022-08-13T13:29:22.048Z,57.36
2022-08-13T13:34:28.918Z,57.65
2022-08-13T13:39:43.369Z,57.69
2022-08-13T13:44:52.525Z,57.82
2022-08-13T13:49:56.426Z,57.92
2022-08-13T13:55:00.571Z,57.52
2022-08-13T14:00:04.739Z,57.70
2022-08-13T14:05:18.846Z,57.50
2022-08-13T14:10:22.916Z,57.45
2022-08-13T14:15:30.143Z,57.54
2022-08-13T14:20:39.183Z,57.78
2022-08-13T14:25:55.152Z,58.36
2022-08-13T14:31:02.329Z,58.46
2022-08-13T14:36:06.186Z,59.03
2022-08-13T14:41:17.245Z,59.86
2022-08-13T14:46:24.691Z,60.16
2022-08-13T14:51:52.655Z,60.60
2022-08-13T14:56:56.768Z,60.71
2022-08-13T15:02:20.168Z,61.07
2022-08-13T15:07:24.671Z,61.46
2022-08-13T15:12:29.072Z,61.68
2022-08-13T15:17:37.527Z,61.78
2022-08-13T15:22:42.459Z,61.94
2022-08-13T15:27:51.677Z,62.01
2022-08-13T15:32:59.583Z,61.97
2022-08-13T15:38:06.190Z,62.25
2022-08-13T15:43:17.927Z,62.32
2022-08-13T15:48:39.924Z,62.36
2022-08-13T15:53:44.030Z,62.64
2022-08-13T15:58:50.041Z,62.85
2022-08-13T16:03:56.529Z,63.26
2022-08-13T16:09:04.655Z,63.19
2022-08-13T16:14:18.430Z,63.40
2022-08-13T16:19:52.366Z,63.59
2022-08-13T16:24:51.687Z,63.70
2022-08-13T16:29:55.874Z,63.64
2022-08-13T16:35:00.186Z,63.90
2022-08-13T16:40:05.443Z,63.88
2022-08-13T16:45:16.649Z,63.91
2022-08-13T16:50:21.559Z,64.43
2022-08-13T16:55:31.700Z,64.58
2022-08-13T17:00:41.467Z,64.62
2022-08-13T17:05:52.971Z,64.92
2022-08-13T17:10:56.770Z,64.95
2022-08-13T17:16:02.746Z,65.25
2022-08-13T17:21:48.563Z,64.99
2022-08-13T17:26:33.414Z,65.39
2022-08-13T17:31:38.659Z,65.71
2022-08-13T17:37:05.082Z,65.75
2022-08-13T17:44:02.564Z,65.59
2022-08-13T17:47:59.775Z,65.62
2022-08-13T17:52:56.114Z,65.78
2022-08-13T17:58:01.616Z,65.95
2022-08-13T18:03:05.371Z,65.82
2022-08-13T18:08:09.123Z,66.27
2022-08-13T18:13:30.619Z,65.95
2022-08-13T18:18:47.757Z,66.21
2022-08-13T18:23:55.881Z,65.89
2022-08-13T18:28:59.718Z,66.17
2022-08-13T18:34:18.285Z,66.27
2022-08-13T18:39:25.110Z,65.94
2022-08-13T18:44:36.132Z,66.29
2022-08-13T18:49:39.901Z,65.96
2022-08-13T18:54:55.214Z,65.73
2022-08-13T19:00:00.978Z,66.10
2022-08-13T19:05:22.634Z,66.09
2022-08-13T19:10:32.185Z,66.14
2022-08-13T19:15:36.494Z,66.11
2022-08-13T19:20:40.249Z,65.98
2022-08-13T19:25:44.484Z,66.25
2022-08-13T19:30:59.524Z,66.49
2022-08-13T19:36:17.586Z,66.54
2022-08-13T19:41:33.929Z,66.11
2022-08-13T19:46:38.586Z,66.23
2022-08-13T19:51:48.787Z,66.42
2022-08-13T19:56:53.820Z,66.63
2022-08-13T20:01:57.084Z,66.55
2022-08-13T20:07:01.129Z,66.39
2022-08-13T20:12:09.072Z,66.59
2022-08-13T20:17:13.336Z,66.51
2022-08-13T20:22:19.196Z,66.88
2022-08-13T20:27:50.480Z,66.58
2022-08-13T20:32:55.317Z,66.65
2022-08-13T20:38:00.345Z,66.67
2022-08-13T20:43:06.639Z,66.89
2022-08-13T20:48:30.472Z,66.59
2022-08-13T20:53:48.373Z,66.95
2022-08-13T21:00:52.577Z,66.96
2022-08-13T21:04:15.900Z,66.87
2022-08-13T21:09:21.462Z,67.28
2022-08-13T21:14:30.209Z,67.48
2022-08-13T21:19:36.519Z,67.40
2022-08-13T21:24:40.871Z,67.30
2022-08-13T21:29:44.339Z,67.46
2022-08-13T21:34:49.971Z,67.77
2022-08-13T21:39:54.653Z,68.02
2022-08-13T21:45:00.450Z,67.75
2022-08-13T21:50:06.965Z,67.53
2022-08-13T21:55:14.149Z,67.80
2022-08-13T22:00:28.374Z,68.25
2022-08-13T22:05:59.298Z,67.73
2022-08-13T22:10:56.791Z,67.83
2022-08-13T22:16:01.469Z,68.19
2022-08-13T22:21:08.312Z,67.85
2022-08-13T22:26:15.998Z,68.16
2022-08-13T22:31:20.558Z,67.77
2022-08-13T22:36:31.659Z,68.03
2022-08-13T22:41:40.812Z,67.96
2022-08-13T22:46:45.369Z,67.76
2022-08-13T22:51:51.720Z,67.94
2022-08-13T22:56:55.221Z,68.29
2022-08-13T23:01:58.588Z,67.85
2022-08-13T23:07:02.987Z,67.89
2022-08-13T23:12:09.166Z,68.09
2022-08-13T23:17:16.118Z,67.88
2022-08-13T23:22:29.732Z,67.94
2022-08-13T23:27:35.567Z,68.26
2022-08-13T23:32:39.503Z,68.23
2022-08-13T23:37:47.553Z,68.46
2022-08-13T23:42:51.175Z,68.38
2022-08-13T23:47:57.793Z,68.33
2022-08-13T23:53:02.461Z,68.35
2022-08-13T23:58:05.868Z,68.12
